createdAt,value
2023-01-19T00:00:47.569Z,8.66
2023-01-19T00:03:18.449Z,8.54
2023-01-19T00:05:46.219Z,8.67
2023-01-19T00:08:16.729Z,8.84
2023-01-19T00:10:49.197Z,8.92
2023-01-19T00:13:16.649Z,8.90
2023-01-19T00:15:44.575Z,8.85
2023-01-19T00:18:12.024Z,8.76
2023-01-19T00:20:40.607Z,8.84
2023-01-19T00:23:08.826Z,8.97
2023-01-19T00:25:42.212Z,8.92
2023-01-19T00:28:11.414Z,8.96
2023-01-19T00:30:39.648Z,8.80
2023-01-19T00:33:07.074Z,8.68
2023-01-19T00:35:35.763Z,8.81
2023-01-19T00:38:03.683Z,8.83
2023-01-19T00:40:31.099Z,8.98
2023-01-19T00:43:00.169Z,8.70
2023-01-19T00:45:27.770Z,8.92
2023-01-19T00:47:57.146Z,8.88
2023-01-19T00:50:29.381Z,8.87
2023-01-19T00:52:57.733Z,8.95
2023-01-19T00:55:25.625Z,8.74
2023-01-19T00:57:52.964Z,8.73
2023-01-19T01:00:21.415Z,8.94
2023-01-19T01:02:51.479Z,8.58
2023-01-19T01:05:19.300Z,8.72
2023-01-19T01:07:48.286Z,8.71
2023-01-19T01:10:23.332Z,8.42
2023-01-19T01:12:57.666Z,8.56
2023-01-19T01:15:28.091Z,8.54
2023-01-19T01:17:55.911Z,8.56
2023-01-19T01:20:27.659Z,8.55
2023-01-19T01:22:57.228Z,8.63
2023-01-19T01:25:26.646Z,8.56
2023-01-19T01:27:54.783Z,8.55
2023-01-19T01:30:22.870Z,8.57
2023-01-19T01:32:50.286Z,8.42
2023-01-19T01:35:17.785Z,8.49
2023-01-19T01:37:45.522Z,8.34
2023-01-19T01:40:14.936Z,8.28
2023-01-19T01:42:42.891Z,8.49
2023-01-19T01:45:33.389Z,8.38
2023-01-19T01:48:28.505Z,8.25
2023-01-19T01:51:25.290Z,8.05
2023-01-19T01:54:02.684Z,8.08
2023-01-19T01:56:43.768Z,8.22
2023-01-19T01:59:34.895Z,8.19
2023-01-19T02:02:24.867Z,8.11
2023-01-19T02:04:58.421Z,8.15
2023-01-19T02:08:31.647Z,8.11
2023-01-19T02:11:18.277Z,8.30
2023-01-19T02:13:47.011Z,8.28
2023-01-19T02:16:15.725Z,8.08
2023-01-19T02:18:43.297Z,7.99
2023-01-19T02:21:23.828Z,7.65
2023-01-19T02:23:53.813Z,7.67
2023-01-19T02:26:27.260Z,7.68
2023-01-19T02:28:57.810Z,7.32
2023-01-19T02:31:26.471Z,7.29
2023-01-19T02:33:54.831Z,7.22
2023-01-19T02:36:29.296Z,7.32
2023-01-19T02:38:57.495Z,7.33
2023-01-19T02:41:28.918Z,7.43
2023-01-19T02:43:57.458Z,7.56
2023-01-19T02:46:25.684Z,7.68
2023-01-19T02:48:53.016Z,7.70
2023-01-19T02:51:21.447Z,7.69
2023-01-19T02:54:23.866Z,7.53
2023-01-19T02:57:09.848Z,7.71
2023-01-19T03:00:02.369Z,7.86
2023-01-19T03:02:46.383Z,7.51
2023-01-19T03:05:58.582Z,7.62
2023-01-19T03:08:48.539Z,7.65
2023-01-19T03:11:16.301Z,7.84
2023-01-19T03:14:04.132Z,7.34
2023-01-19T03:16:44.009Z,7.56
2023-01-19T03:19:19.712Z,7.65
2023-01-19T03:22:05.015Z,7.45
2023-01-19T03:24:37.068Z,7.31
2023-01-19T03:27:26.540Z,7.17
2023-01-19T03:30:13.153Z,6.76
2023-01-19T03:33:08.024Z,6.57
2023-01-19T03:35:37.537Z,6.76
2023-01-19T03:38:15.019Z,6.64
2023-01-19T03:40:42.760Z,6.88
2023-01-19T03:43:10.604Z,7.02
2023-01-19T03:45:38.720Z,6.47
2023-01-19T03:48:06.414Z,6.72
2023-01-19T03:50:34.022Z,6.68
2023-01-19T03:53:05.828Z,6.71
2023-01-19T03:55:34.440Z,6.96
2023-01-19T03:58:02.415Z,7.03
2023-01-19T04:00:29.911Z,6.77
2023-01-19T04:02:57.728Z,7.06
2023-01-19T04:05:25.339Z,6.86
2023-01-19T04:07:52.787Z,6.89
2023-01-19T04:10:21.134Z,6.73
2023-01-19T04:12:48.734Z,6.59
2023-01-19T04:15:16.329Z,6.46
2023-01-19T04:17:44.211Z,6.50
2023-01-19T04:20:11.746Z,6.70
2023-01-19T04:22:39.639Z,6.43
2023-01-19T04:25:08.296Z,6.00
2023-01-19T04:27:36.398Z,6.35
2023-01-19T04:30:04.527Z,6.33
2023-01-19T04:32:32.563Z,6.12
2023-01-19T04:35:00.207Z,6.20
2023-01-19T04:37:27.713Z,6.49
2023-01-19T04:39:55.379Z,6.68
2023-01-19T04:42:23.011Z,6.81
2023-01-19T04:44:50.416Z,7.01
2023-01-19T04:47:18.033Z,7.07
2023-01-19T04:49:45.669Z,7.04
2023-01-19T04:52:13.283Z,7.09
2023-01-19T04:54:40.980Z,7.07
2023-01-19T04:57:08.386Z,6.85
2023-01-19T04:59:35.788Z,6.82
2023-01-19T05:02:03.582Z,6.68
2023-01-19T05:04:30.965Z,6.71
2023-01-19T05:06:58.453Z,6.83
2023-01-19T05:09:27.164Z,6.94
2023-01-19T05:11:54.557Z,6.89
2023-01-19T05:14:22.094Z,7.05
2023-01-19T05:16:49.746Z,6.93
2023-01-19T05:19:17.194Z,7.09
2023-01-19T05:21:44.573Z,7.18
2023-01-19T05:24:12.365Z,7.15
2023-01-19T05:26:39.784Z,7.16
2023-01-19T05:29:08.107Z,7.09
2023-01-19T05:31:37.131Z,7.29
2023-01-19T05:34:04.967Z,7.29
2023-01-19T05:36:32.705Z,7.36
2023-01-19T05:39:00.410Z,7.34
2023-01-19T05:41:27.742Z,7.48
2023-01-19T05:43:55.127Z,7.34
2023-01-19T05:46:22.871Z,7.53
2023-01-19T05:48:50.613Z,7.50
2023-01-19T05:51:17.987Z,7.58
2023-01-19T05:53:45.609Z,7.44
2023-01-19T05:56:13.066Z,7.41
2023-01-19T05:58:40.543Z,7.34
2023-01-19T06:01:10.259Z,7.25
2023-01-19T06:03:39.516Z,6.66
2023-01-19T06:06:07.103Z,6.78
2023-01-19T06:08:34.483Z,6.69
2023-01-19T06:11:02.193Z,6.94
2023-01-19T06:13:29.776Z,6.76
2023-01-19T06:16:01.388Z,6.53
2023-01-19T06:18:29.434Z,6.52
2023-01-19T06:20:58.842Z,6.60
2023-01-19T06:23:29.974Z,6.46
2023-01-19T06:25:57.764Z,6.11
2023-01-19T06:28:25.510Z,5.89
2023-01-19T06:30:54.404Z,5.78
2023-01-19T06:33:22.949Z,5.87
2023-01-19T06:35:51.059Z,5.84
2023-01-19T06:38:19.288Z,5.68
2023-01-19T06:40:53.839Z,5.78
2023-01-19T06:43:21.692Z,5.71
2023-01-19T06:45:50.097Z,5.93
2023-01-19T06:48:18.054Z,6.07
2023-01-19T06:50:46.672Z,6.43
2023-01-19T06:53:16.514Z,6.42
2023-01-19T06:55:44.223Z,6.36
2023-01-19T06:58:11.982Z,6.28
2023-01-19T07:00:39.645Z,6.44
2023-01-19T07:03:07.850Z,6.46
2023-01-19T07:05:36.241Z,6.47
2023-01-19T07:08:04.212Z,6.65
2023-01-19T07:11:25.420Z,6.52
2023-01-19T07:13:19.593Z,6.64
2023-01-19T07:15:46.975Z,6.68
2023-01-19T07:18:14.387Z,6.30
2023-01-19T07:20:42.035Z,6.67
2023-01-19T07:23:09.375Z,6.77
2023-01-19T07:25:36.816Z,6.97
2023-01-19T07:28:04.543Z,7.14
2023-01-19T07:30:31.986Z,7.23
2023-01-19T07:32:59.780Z,7.48
2023-01-19T07:35:29.609Z,8.10
2023-01-19T07:37:56.927Z,8.27
2023-01-19T07:40:24.308Z,8.29
2023-01-19T07:42:52.105Z,8.34
2023-01-19T07:45:20.840Z,8.32
2023-01-19T07:47:49.712Z,8.35
2023-01-19T07:50:21.153Z,8.20
2023-01-19T07:52:53.322Z,8.11
2023-01-19T07:55:21.495Z,8.15
2023-01-19T07:57:51.058Z,8.11
2023-01-19T08:00:21.849Z,7.98
2023-01-19T08:02:52.490Z,7.99
2023-01-19T08:05:20.397Z,8.10
2023-01-19T08:07:48.318Z,8.07
2023-01-19T08:10:18.668Z,8.01
2023-01-19T08:12:45.982Z,7.96
2023-01-19T08:15:13.542Z,7.74
2023-01-19T08:17:41.138Z,7.87
2023-01-19T08:20:09.840Z,7.95
2023-01-19T08:22:37.781Z,7.84
2023-01-19T08:25:05.786Z,7.82
2023-01-19T08:27:33.095Z,7.99
2023-01-19T08:30:00.781Z,7.78
2023-01-19T08:32:28.425Z,7.42
2023-01-19T08:34:55.971Z,7.30
2023-01-19T08:37:24.793Z,7.15
2023-01-19T08:39:53.940Z,7.24
2023-01-19T08:42:21.558Z,7.15
2023-01-19T08:44:57.518Z,7.00
2023-01-19T08:47:25.713Z,7.02
2023-01-19T08:49:53.143Z,6.93
2023-01-19T08:52:20.473Z,6.59
2023-01-19T08:54:48.073Z,6.42
2023-01-19T08:57:16.191Z,6.34
2023-01-19T08:59:43.742Z,6.17
2023-01-19T09:02:12.137Z,6.13
2023-01-19T09:04:39.615Z,6.17
2023-01-19T09:07:07.005Z,6.14
2023-01-19T09:09:37.796Z,6.20
2023-01-19T09:12:05.389Z,6.28
2023-01-19T09:14:32.749Z,6.14
2023-01-19T09:17:00.441Z,6.35
2023-01-19T09:19:27.864Z,6.60
2023-01-19T09:21:55.284Z,6.70
2023-01-19T09:24:22.939Z,6.60
2023-01-19T09:26:50.601Z,6.65
2023-01-19T09:29:17.975Z,6.05
2023-01-19T09:31:45.709Z,6.45
2023-01-19T09:34:13.168Z,6.52
2023-01-19T09:36:40.599Z,6.51
2023-01-19T09:39:09.293Z,6.54
2023-01-19T09:41:38.646Z,6.09
2023-01-19T09:44:06.190Z,6.14
2023-01-19T09:46:38.978Z,6.26
2023-01-19T09:49:44.073Z,6.23
2023-01-19T09:52:15.032Z,5.99
2023-01-19T09:54:56.616Z,5.79
2023-01-19T09:57:25.223Z,5.55
2023-01-19T09:59:57.844Z,5.91
2023-01-19T10:02:36.490Z,5.86
2023-01-19T10:05:05.408Z,5.69
2023-01-19T10:07:32.670Z,5.52
2023-01-19T10:10:21.129Z,5.58
2023-01-19T10:13:25.098Z,5.47
2023-01-19T10:16:02.439Z,5.34
2023-01-19T10:18:47.904Z,5.36
2023-01-19T10:21:21.701Z,5.18
2023-01-19T10:23:55.281Z,5.36
2023-01-19T10:26:41.185Z,5.27
2023-01-19T10:29:19.731Z,5.26
2023-01-19T10:31:47.661Z,5.41
2023-01-19T10:34:20.947Z,4.94
2023-01-19T10:36:59.067Z,5.25
2023-01-19T10:39:26.824Z,5.01
2023-01-19T10:41:54.240Z,5.17
2023-01-19T10:44:26.675Z,5.20
2023-01-19T10:46:56.911Z,5.14
2023-01-19T10:49:39.145Z,4.85
2023-01-19T10:52:19.055Z,5.20
2023-01-19T10:54:48.468Z,5.21
2023-01-19T10:57:36.568Z,5.39
2023-01-19T11:00:06.426Z,5.28
2023-01-19T11:02:34.504Z,5.28
2023-01-19T11:05:22.904Z,5.26
2023-01-19T11:07:50.607Z,5.23
2023-01-19T11:10:20.683Z,4.77
2023-01-19T11:13:15.682Z,5.20
2023-01-19T11:15:45.831Z,4.94
2023-01-19T11:18:39.652Z,5.27
2023-01-19T11:21:10.034Z,5.18
2023-01-19T11:23:43.055Z,5.06
2023-01-19T11:26:25.071Z,4.85
2023-01-19T11:28:56.003Z,5.00
2023-01-19T11:31:29.833Z,4.72
2023-01-19T11:34:25.945Z,4.89
2023-01-19T11:37:31.049Z,4.72
2023-01-19T11:39:59.695Z,4.93
2023-01-19T11:42:30.962Z,5.10
2023-01-19T11:45:11.024Z,5.30
2023-01-19T11:47:44.197Z,5.15
2023-01-19T11:50:35.078Z,5.29
2023-01-19T11:53:24.797Z,4.77
2023-01-19T11:55:56.883Z,4.54
2023-01-19T11:58:25.997Z,4.99
2023-01-19T12:01:20.867Z,5.21
2023-01-19T12:03:54.870Z,5.50
2023-01-19T12:06:26.314Z,5.28
2023-01-19T12:09:00.199Z,5.07
2023-01-19T12:11:32.496Z,5.07
2023-01-19T12:14:00.123Z,5.36
2023-01-19T12:16:30.134Z,5.63
2023-01-19T12:19:01.648Z,5.45
2023-01-19T12:21:29.589Z,5.38
2023-01-19T12:24:16.395Z,5.44
2023-01-19T12:26:51.924Z,5.15
2023-01-19T12:29:22.359Z,5.30
2023-01-19T12:32:14.889Z,5.40
2023-01-19T12:34:49.549Z,5.43
2023-01-19T12:37:37.227Z,5.19
2023-01-19T12:40:20.284Z,5.42
2023-01-19T12:42:55.223Z,5.47
2023-01-19T12:45:25.685Z,5.73
2023-01-19T12:47:54.543Z,5.84
2023-01-19T12:50:25.742Z,5.53
2023-01-19T12:52:57.441Z,5.57
2023-01-19T12:55:27.849Z,5.71
2023-01-19T12:58:00.684Z,5.55
2023-01-19T13:00:35.532Z,5.09
2023-01-19T13:03:18.425Z,5.33
2023-01-19T13:05:48.608Z,5.37
2023-01-19T13:08:18.155Z,5.20
2023-01-19T13:11:07.796Z,5.27
2023-01-19T13:13:40.147Z,4.96
2023-01-19T13:16:19.909Z,4.90
2023-01-19T13:19:06.225Z,4.84
2023-01-19T13:21:44.695Z,4.47
2023-01-19T13:24:17.696Z,4.54
2023-01-19T13:26:54.899Z,4.67
2023-01-19T13:29:33.112Z,4.88
2023-01-19T13:32:24.124Z,4.94
2023-01-19T13:34:57.151Z,4.66
2023-01-19T13:37:34.517Z,4.54
2023-01-19T13:40:02.663Z,4.64
2023-01-19T13:42:40.857Z,4.89
2023-01-19T13:45:33.525Z,4.80
2023-01-19T13:48:06.441Z,4.99
2023-01-19T13:50:38.527Z,4.48
2023-01-19T13:53:19.307Z,4.43
2023-01-19T13:55:48.167Z,4.54
2023-01-19T13:58:22.177Z,4.64
2023-01-19T14:00:50.091Z,4.77
2023-01-19T14:03:23.610Z,4.86
2023-01-19T14:05:52.480Z,4.88
2023-01-19T14:08:20.803Z,4.86
2023-01-19T14:10:54.058Z,4.74
2023-01-19T14:13:27.119Z,4.67
2023-01-19T14:15:57.873Z,4.52
2023-01-19T14:18:30.934Z,4.44
2023-01-19T14:21:11.257Z,4.58
2023-01-19T14:23:47.131Z,4.29
2023-01-19T14:26:43.068Z,4.59
2023-01-19T14:29:38.116Z,4.84
2023-01-19T14:32:20.101Z,4.24
2023-01-19T14:35:03.993Z,4.61
2023-01-19T14:37:34.037Z,4.47
2023-01-19T14:40:04.854Z,4.50
2023-01-19T14:42:35.692Z,4.29
2023-01-19T14:45:07.175Z,4.19
2023-01-19T14:47:40.334Z,4.21
2023-01-19T14:50:21.605Z,3.90
2023-01-19T14:52:56.833Z,4.28
2023-01-19T14:55:32.461Z,4.61
2023-01-19T14:57:59.862Z,4.54
2023-01-19T15:00:27.615Z,4.50
2023-01-19T15:02:54.956Z,4.90
2023-01-19T15:05:23.117Z,4.67
2023-01-19T15:07:52.189Z,4.49
2023-01-19T15:10:22.127Z,4.52
2023-01-19T15:12:53.879Z,4.31
2023-01-19T15:15:29.714Z,4.49
2023-01-19T15:17:58.051Z,4.64
2023-01-19T15:20:25.823Z,4.54
2023-01-19T15:22:53.199Z,4.13
2023-01-19T15:25:26.111Z,4.23
2023-01-19T15:27:57.912Z,4.47
2023-01-19T15:30:31.232Z,4.11
2023-01-19T15:32:59.531Z,3.84
2023-01-19T15:35:26.920Z,4.04
2023-01-19T15:37:54.427Z,3.92
2023-01-19T15:40:23.214Z,4.11
2023-01-19T15:42:50.843Z,4.08
2023-01-19T15:45:39.579Z,4.48
2023-01-19T15:48:09.454Z,4.53
2023-01-19T15:50:39.267Z,4.52
2023-01-19T15:53:07.596Z,4.56
2023-01-19T15:55:34.962Z,4.55
2023-01-19T15:58:02.440Z,4.41
2023-01-19T16:00:31.994Z,4.71
2023-01-19T16:03:01.462Z,4.68
2023-01-19T16:05:41.803Z,4.80
2023-01-19T16:08:13.438Z,4.66
2023-01-19T16:10:41.774Z,4.70
2023-01-19T16:13:11.333Z,4.59
2023-01-19T16:15:39.666Z,4.77
2023-01-19T16:18:07.106Z,4.52
2023-01-19T16:20:34.489Z,4.36
2023-01-19T16:23:14.579Z,4.41
2023-01-19T16:25:43.088Z,4.45
2023-01-19T16:28:10.716Z,4.38
2023-01-19T16:30:38.178Z,4.32
2023-01-19T16:33:05.571Z,4.18
2023-01-19T16:35:33.177Z,4.56
2023-01-19T16:38:00.561Z,4.57
2023-01-19T16:40:27.929Z,4.52
2023-01-19T16:42:55.609Z,4.27
2023-01-19T16:45:22.999Z,3.99
2023-01-19T16:47:52.143Z,4.23
2023-01-19T16:50:19.910Z,4.62
2023-01-19T16:52:47.360Z,4.26
2023-01-19T16:55:14.714Z,4.40
2023-01-19T16:57:42.413Z,4.47
2023-01-19T17:00:10.960Z,4.33
2023-01-19T17:02:38.498Z,4.36
2023-01-19T17:05:06.714Z,4.47
2023-01-19T17:07:34.068Z,4.48
2023-01-19T17:10:01.526Z,4.80
2023-01-19T17:12:31.986Z,4.93
2023-01-19T17:14:59.595Z,4.66
2023-01-19T17:17:26.939Z,4.45
2023-01-19T17:19:54.663Z,4.59
2023-01-19T17:22:22.042Z,4.35
2023-01-19T17:24:49.816Z,4.39
2023-01-19T17:27:17.501Z,4.19
2023-01-19T17:29:44.928Z,4.10
2023-01-19T17:32:12.408Z,4.02
2023-01-19T17:34:40.610Z,4.00
2023-01-19T17:37:08.011Z,4.34
2023-01-19T17:39:35.406Z,4.23
2023-01-19T17:42:03.491Z,4.34
2023-01-19T17:44:30.946Z,4.33
2023-01-19T17:46:59.972Z,4.27
2023-01-19T17:49:27.913Z,3.95
2023-01-19T17:51:55.779Z,3.93
2023-01-19T17:54:23.250Z,4.09
2023-01-19T17:56:50.938Z,4.06
2023-01-19T17:59:18.386Z,4.21
2023-01-19T18:01:46.526Z,4.20
2023-01-19T18:04:14.378Z,4.48
2023-01-19T18:06:41.769Z,4.13
2023-01-19T18:09:09.165Z,4.03
2023-01-19T18:11:36.838Z,4.02
2023-01-19T18:14:05.421Z,4.23
2023-01-19T18:16:33.247Z,4.18
2023-01-19T18:19:01.110Z,4.18
2023-01-19T18:21:30.425Z,4.34
2023-01-19T18:24:02.877Z,4.40
2023-01-19T18:26:32.131Z,4.42
2023-01-19T18:29:00.192Z,4.78
2023-01-19T18:31:28.108Z,4.35
2023-01-19T18:33:55.909Z,4.37
2023-01-19T18:36:23.497Z,4.33
2023-01-19T18:38:51.201Z,4.49
2023-01-19T18:41:20.840Z,4.53
2023-01-19T18:43:48.795Z,4.26
2023-01-19T18:46:16.631Z,4.07
2023-01-19T18:48:44.435Z,4.09
2023-01-19T18:51:13.967Z,4.24
2023-01-19T18:53:41.427Z,4.00
2023-01-19T18:56:12.371Z,4.05
2023-01-19T18:58:39.851Z,4.16
2023-01-19T19:01:17.480Z,4.28
2023-01-19T19:03:45.319Z,4.00
2023-01-19T19:06:12.855Z,3.77
2023-01-19T19:08:40.477Z,3.90
2023-01-19T19:11:08.587Z,3.95
2023-01-19T19:13:36.563Z,3.64
2023-01-19T19:16:05.876Z,3.44
2023-01-19T19:18:37.885Z,3.69
2023-01-19T19:21:10.493Z,3.88
2023-01-19T19:23:38.528Z,4.01
2023-01-19T19:26:08.796Z,3.71
2023-01-19T19:28:37.424Z,3.81
2023-01-19T19:31:13.097Z,3.73
2023-01-19T19:33:41.024Z,3.69
2023-01-19T19:36:10.190Z,3.84
2023-01-19T19:38:37.895Z,3.75
2023-01-19T19:41:09.977Z,4.10
2023-01-19T19:43:38.424Z,4.04
2023-01-19T19:46:07.997Z,3.89
2023-01-19T19:48:38.156Z,3.93
2023-01-19T19:51:19.496Z,3.85
2023-01-19T19:53:49.042Z,3.86
2023-01-19T19:56:21.199Z,4.05
2023-01-19T19:58:49.371Z,3.74
2023-01-19T20:01:21.538Z,3.63
2023-01-19T20:03:49.277Z,3.57
2023-01-19T20:06:20.744Z,3.87
2023-01-19T20:08:49.142Z,3.13
2023-01-19T20:11:19.394Z,3.39
2023-01-19T20:13:47.728Z,3.61
2023-01-19T20:16:17.791Z,3.61
2023-01-19T20:18:48.590Z,3.55
2023-01-19T20:21:19.233Z,3.54
2023-01-19T20:23:48.939Z,3.54
2023-01-19T20:26:19.961Z,4.00
2023-01-19T20:28:48.063Z,3.94
2023-01-19T20:31:19.054Z,3.71
2023-01-19T20:33:47.708Z,3.55
2023-01-19T20:36:15.691Z,3.82
2023-01-19T20:38:43.338Z,3.83
2023-01-19T20:41:12.219Z,3.34
2023-01-19T20:43:39.896Z,3.21
2023-01-19T20:46:07.536Z,3.30
2023-01-19T20:48:35.373Z,3.39
2023-01-19T20:51:11.469Z,3.63
2023-01-19T20:53:40.627Z,3.64
2023-01-19T20:56:13.105Z,3.40
2023-01-19T20:58:40.960Z,3.76
2023-01-19T21:01:17.477Z,3.71
2023-01-19T21:03:45.101Z,3.65
2023-01-19T21:06:12.895Z,3.33
2023-01-19T21:08:40.454Z,3.26
2023-01-19T21:11:08.591Z,3.33
2023-01-19T21:13:36.771Z,3.47
2023-01-19T21:16:04.758Z,3.20
2023-01-19T21:18:32.429Z,3.29
2023-01-19T21:21:00.140Z,3.23
2023-01-19T21:23:28.071Z,3.44
2023-01-19T21:25:58.289Z,3.21
2023-01-19T21:28:27.052Z,3.46
2023-01-19T21:30:55.385Z,3.46
2023-01-19T21:33:23.210Z,3.55
2023-01-19T21:35:56.188Z,3.74
2023-01-19T21:38:26.713Z,3.52
2023-01-19T21:40:55.401Z,3.73
2023-01-19T21:43:23.486Z,4.12
2023-01-19T21:45:50.956Z,3.99
2023-01-19T21:48:19.696Z,3.64
2023-01-19T21:50:56.569Z,3.92
2023-01-19T21:53:24.282Z,4.12
2023-01-19T21:55:51.709Z,4.08
2023-01-19T21:58:19.049Z,4.44
2023-01-19T22:00:46.799Z,4.50
2023-01-19T22:03:14.567Z,4.71
2023-01-19T22:05:42.077Z,4.85
2023-01-19T22:08:09.600Z,4.92
2023-01-19T22:10:37.524Z,4.92
2023-01-19T22:13:06.600Z,4.69
2023-01-19T22:15:34.099Z,4.79
2023-01-19T22:18:01.763Z,4.41
2023-01-19T22:20:29.159Z,4.35
2023-01-19T22:22:57.062Z,4.20
2023-01-19T22:25:27.771Z,4.29
2023-01-19T22:27:55.819Z,4.41
2023-01-19T22:30:23.365Z,4.72
2023-01-19T22:32:53.000Z,4.53
2023-01-19T22:35:21.250Z,4.69
2023-01-19T22:37:48.624Z,4.86
2023-01-19T22:40:16.757Z,4.69
2023-01-19T22:42:47.996Z,4.72
2023-01-19T22:45:16.019Z,4.73
2023-01-19T22:47:43.451Z,4.53
2023-01-19T22:50:10.868Z,4.63
2023-01-19T22:52:38.471Z,4.14
2023-01-19T22:55:06.174Z,3.68
2023-01-19T22:57:36.431Z,3.79
2023-01-19T23:00:07.050Z,3.93
2023-01-19T23:02:34.544Z,4.19
2023-01-19T23:05:01.897Z,4.46
2023-01-19T23:07:29.642Z,4.49
2023-01-19T23:09:56.996Z,4.40
2023-01-19T23:12:24.420Z,4.08
2023-01-19T23:14:52.100Z,4.06
2023-01-19T23:17:19.484Z,4.05
2023-01-19T23:19:47.000Z,3.98
2023-01-19T23:22:14.616Z,4.15
2023-01-19T23:24:41.963Z,4.36
2023-01-19T23:27:09.609Z,4.45
2023-01-19T23:29:37.400Z,4.12
2023-01-19T23:32:04.929Z,4.23
2023-01-19T23:34:32.250Z,4.05
2023-01-19T23:36:59.860Z,4.03
2023-01-19T23:39:27.192Z,4.31
2023-01-19T23:41:54.572Z,4.33
2023-01-19T23:44:22.195Z,4.53
2023-01-19T23:46:49.560Z,4.30
2023-01-19T23:49:18.063Z,4.18
2023-01-19T23:51:45.714Z,3.79
2023-01-19T23:54:13.038Z,3.80
2023-01-19T23:56:42.592Z,3.94
2023-01-19T23:59:12.747Z,4.27
